.
WxDataArchive / Data Records for 2011-11-21
2011-11-20 November 2011 2011-11-22

Data Records for Monday, 21 November 2011

Time	Temp	Chill	HIndex	Humid	Dewpt	 Wind 	HiWind	WindDir	Rain 	Barom 
-----	----	-----	------	-----	-----	------	------	-------	-----	----- 
00:00	41.5	41.5	41.5	75	34.2	2	6	90	0.00	30.276 
00:05	41.5	41.5	41.5	75	34.2	1	4	90	0.00	30.276 
00:10	41.5	41.5	41.5	75	34.2	2	6	90	0.00	30.276 
00:15	41.5	41.5	41.5	75	34.2	3	7	112	0.00	30.265 
00:20	41.3	41.3	41.3	75	34.0	3	9	90	0.00	30.265 
00:25	41.3	41.3	41.3	75	34.0	1	4	22	0.00	30.265 
00:30	41.2	41.2	41.2	76	34.2	1	10	112	0.00	30.271 
00:35	41.2	41.2	41.2	76	34.2	1	4	112	0.00	30.271 
00:40	41.1	41.1	41.1	76	34.1	0	3	68	0.00	30.271 
00:45	41.1	41.1	41.1	76	34.1	1	4	45	0.00	30.279 
00:50	41.1	41.1	41.1	76	34.1	2	5	90	0.00	30.279 
00:55	40.9	40.9	40.9	75	33.6	1	4	90	0.00	30.279 
01:00	40.9	40.9	40.9	75	33.6	1	5	112	0.00	30.293 
01:05	40.9	40.9	40.9	76	33.9	1	4	112	0.00	30.293 
01:10	40.9	40.9	40.9	76	33.9	2	5	90	0.00	30.293 
01:15	40.8	40.8	40.8	76	33.8	2	6	90	0.00	30.285 
01:20	40.6	40.6	40.6	76	33.6	1	5	90	0.00	30.285 
01:25	40.6	40.6	40.6	76	33.6	0	2	90	0.00	30.285 
01:30	40.5	40.5	40.5	77	33.9	1	3	90	0.00	30.287 
01:35	40.5	40.5	40.5	77	33.9	1	4	90	0.00	30.287 
01:40	40.5	40.5	40.5	77	33.9	1	3	90	0.00	30.287 
01:45	40.5	40.5	40.5	77	33.9	1	4	90	0.00	30.272 
01:50	40.3	40.3	40.3	77	33.7	0	3	90	0.00	30.272 
01:55	40.3	40.3	40.3	78	34.0	0	3	90	0.00	30.272 
02:00	40.3	40.3	40.3	78	34.0	0	2	90	0.00	30.285 
02:05	40.2	40.2	40.2	78	33.9	0	3	90	0.00	30.285 
02:10	40.2	40.2	40.2	78	33.9	0	2	90	0.00	30.285 
02:15	40.2	40.2	40.2	79	34.2	1	3	90	0.00	30.279 
02:20	40.2	40.2	40.2	79	34.2	0	2	68	0.00	30.279 
02:25	40.2	40.2	40.2	79	34.2	2	5	90	0.00	30.279 
02:30	40.2	40.2	40.2	79	34.2	1	5	112	0.00	30.259 
02:35	40.1	40.1	40.1	79	34.1	1	6	112	0.00	30.259 
02:40	40.1	40.1	40.1	80	34.4	0	2	112	0.00	30.259 
02:45	40.1	40.1	40.1	81	34.7	0	3	112	0.00	30.283 
02:50	40.1	40.1	40.1	81	34.7	0	2	112	0.00	30.283 
02:55	40.1	40.1	40.1	83	35.4	1	6	112	0.00	30.283 
03:00	39.9	39.9	39.9	84	35.5	1	4	90	0.01	30.272 
03:05	39.8	39.8	39.8	85	35.7	1	3	90	0.00	30.272 
03:10	39.6	39.6	39.6	86	35.8	1	5	90	0.00	30.272 
03:15	39.5	39.5	39.5	86	35.7	1	3	90	0.00	30.276 
03:20	39.3	39.3	39.3	87	35.8	1	4	90	0.00	30.276 
03:25	39.3	39.3	39.3	87	35.8	2	5	90	0.00	30.276 
03:30	39.2	39.2	39.2	87	35.7	2	7	90	0.00	30.278 
03:35	39.2	39.2	39.2	88	35.9	2	4	90	0.00	30.278 
03:40	39.2	39.2	39.2	88	35.9	1	6	68	0.00	30.278 
03:45	39.2	39.2	39.2	88	35.9	1	4	90	0.00	30.270 
03:50	39.2	39.2	39.2	88	35.9	1	4	90	0.00	30.270 
03:55	39.2	39.2	39.2	88	35.9	1	4	90	0.00	30.270 
04:00	39.1	39.1	39.1	89	36.1	1	3	68	0.00	30.278 
04:05	39.2	39.2	39.2	89	36.2	0	1	68	0.00	30.278 
04:10	39.1	39.1	39.1	89	36.1	0	3	68	0.00	30.278 
04:15	39.1	39.1	39.1	89	36.1	0	2	68	0.00	30.273 
04:20	39.1	39.1	39.1	89	36.1	1	5	68	0.00	30.273 
04:25	38.9	38.9	38.9	89	35.9	1	4	112	0.00	30.273 
04:30	38.9	38.9	38.9	90	36.2	1	4	112	0.01	30.274 
04:35	38.8	38.8	38.8	90	36.1	1	4	112	0.00	30.274 
04:40	38.8	38.8	38.8	90	36.1	1	5	90	0.00	30.274 
04:45	38.6	38.6	38.6	90	35.9	0	2	90	0.00	30.280 
04:50	38.5	38.5	38.5	90	35.8	1	5	90	0.00	30.280 
04:55	38.5	38.5	38.5	91	36.1	1	5	90	0.00	30.280 
05:00	38.3	38.3	38.3	91	35.9	0	3	90	0.00	30.280 
05:05	38.3	38.3	38.3	91	35.9	2	5	90	0.00	30.280 
05:10	38.3	38.3	38.3	91	35.9	1	4	90	0.00	30.280 
05:15	38.3	38.3	38.3	92	36.2	2	6	112	0.00	30.275 
05:20	38.2	38.2	38.2	92	36.1	1	5	112	0.00	30.275 
05:25	38.2	38.2	38.2	92	36.1	1	3	112	0.00	30.275 
05:30	38.2	38.2	38.2	92	36.1	1	7	90	0.01	30.277 
05:35	38.0	38.0	38.0	92	35.9	1	5	90	0.00	30.277 
05:40	38.0	38.0	38.0	92	35.9	2	6	90	0.00	30.277 
05:45	38.0	38.0	38.0	92	35.9	2	4	90	0.00	30.287 
05:50	37.9	37.9	37.9	92	35.8	2	5	68	0.00	30.287 
05:55	37.8	37.8	37.8	92	35.7	3	7	90	0.01	30.287 
06:00	37.8	37.8	37.8	93	36.0	2	7	112	0.00	30.291 
06:05	37.8	37.8	37.8	93	36.0	2	5	90	0.00	30.291 
06:10	37.8	37.8	37.8	93	36.0	1	4	90	0.01	30.291 
06:15	37.8	37.8	37.8	93	36.0	1	4	90	0.01	30.303 
06:20	37.8	37.8	37.8	93	36.0	2	5	90	0.01	30.303 
06:25	37.8	37.8	37.8	93	36.0	2	5	90	0.01	30.303 
06:30	37.8	37.8	37.8	93	36.0	1	3	90	0.01	30.299 
06:35	37.8	37.8	37.8	93	36.0	2	5	90	0.01	30.299 
06:40	37.8	37.8	37.8	94	36.2	1	4	90	0.00	30.299 
06:45	37.9	37.9	37.9	94	36.3	1	3	90	0.01	30.300 
06:50	37.9	37.9	37.9	94	36.3	1	4	90	0.00	30.300 
06:55	37.9	37.9	37.9	94	36.3	1	4	90	0.00	30.300 
07:00	37.9	37.9	37.9	94	36.3	1	4	90	0.00	30.306 
07:05	37.9	37.9	37.9	94	36.3	1	3	90	0.00	30.306 
07:10	37.9	37.9	37.9	94	36.3	1	4	90	0.01	30.306 
07:15	38.0	38.0	38.0	94	36.4	1	4	112	0.00	30.303 
07:20	38.0	38.0	38.0	94	36.4	1	4	112	0.00	30.303 
07:25	38.0	38.0	38.0	94	36.4	2	6	112	0.00	30.303 
07:30	37.9	37.9	37.9	94	36.3	1	3	112	0.00	30.307 
07:35	37.9	37.9	37.9	94	36.3	1	3	112	0.00	30.307 
07:40	37.9	37.9	37.9	94	36.3	2	5	112	0.00	30.307 
07:45	37.9	37.9	37.9	94	36.3	2	6	90	0.00	30.308 
07:50	37.9	37.9	37.9	94	36.3	1	4	112	0.00	30.308 
07:55	38.0	38.0	38.0	95	36.7	1	6	90	0.00	30.308 
08:00	38.0	38.0	38.0	95	36.7	1	6	112	0.00	30.317 
08:05	38.0	38.0	38.0	95	36.7	2	6	90	0.00	30.317 
08:10	38.0	38.0	38.0	95	36.7	1	6	90	0.00	30.317 
08:15	38.0	38.0	38.0	95	36.7	1	5	90	0.00	30.322 
08:20	38.2	38.2	38.2	95	36.9	2	7	90	0.01	30.322 
08:25	38.0	38.0	38.0	95	36.7	3	7	90	0.01	30.322 
08:30	38.2	38.2	38.2	95	36.9	2	5	90	0.00	30.324 
08:35	38.2	38.2	38.2	95	36.9	2	4	90	0.00	30.324 
08:40	38.2	38.2	38.2	95	36.9	1	4	90	0.00	30.324 
08:45	38.2	38.2	38.2	95	36.9	2	6	90	0.00	30.323 
08:50	38.2	38.2	38.2	95	36.9	2	9	112	0.00	30.323 
08:55	38.0	38.0	38.0	95	36.7	3	9	90	0.00	30.323 
09:00	38.0	38.0	38.0	95	36.7	2	7	90	0.00	30.328 
09:05	38.0	38.0	38.0	95	36.7	2	6	90	0.00	30.328 
09:10	38.0	38.0	38.0	95	36.7	3	6	112	0.00	30.328 
09:15	38.2	38.2	38.2	95	36.9	2	9	90	0.00	30.322 
09:20	38.2	38.2	38.2	95	36.9	1	8	135	0.00	30.322 
09:25	38.3	38.3	38.3	95	37.0	1	3	45	0.00	30.322 
09:30	38.3	38.3	38.3	95	37.0	1	5	45	0.00	30.323 
09:35	38.5	38.5	38.5	95	37.2	2	6	112	0.00	30.323 
09:40	38.6	38.6	38.6	94	37.0	2	7	112	0.00	30.323 
09:45	38.5	38.5	38.5	94	36.9	2	7	90	0.00	30.313 
09:50	38.5	35.6	38.5	94	36.9	4	10	90	0.00	30.313 
09:55	38.5	38.5	38.5	94	36.9	2	7	90	0.00	30.313 
10:00	38.6	38.6	38.6	94	37.0	1	6	90	0.00	30.305 
10:05	38.6	38.6	38.6	94	37.0	3	10	90	0.00	30.305 
10:10	38.6	38.6	38.6	94	37.0	2	8	90	0.00	30.305 
10:15	38.6	35.7	38.6	94	37.0	4	9	90	0.01	30.308 
10:20	38.6	35.7	38.6	93	36.8	4	10	90	0.00	30.308 
10:25	38.6	38.6	38.6	93	36.8	3	9	90	0.00	30.308 
10:30	38.9	38.9	38.9	93	37.1	2	6	90	0.00	30.309 
10:35	38.9	38.9	38.9	93	37.1	3	9	90	0.00	30.309 
10:40	38.9	36.0	38.9	93	37.1	4	12	90	0.00	30.309 
10:45	39.1	39.1	39.1	93	37.2	3	9	90	0.00	30.320 
10:50	39.2	36.4	39.2	92	37.1	4	7	90	0.00	30.320 
10:55	39.3	36.5	39.3	92	37.2	4	12	112	0.00	30.320 
11:00	39.5	39.5	39.5	92	37.4	3	7	90	0.00	30.322 
11:05	39.6	39.6	39.6	92	37.5	3	7	90	0.00	30.322 
11:10	39.6	39.6	39.6	92	37.5	3	7	112	0.00	30.322 
11:15	39.8	39.8	39.8	92	37.7	2	10	112	0.00	30.321 
11:20	39.8	37.1	39.8	91	37.4	4	10	90	0.00	30.321 
11:25	39.9	37.2	39.9	91	37.5	4	7	90	0.00	30.321 
11:30	40.1	40.1	40.1	91	37.7	3	10	90	0.00	30.318 
11:35	40.2	40.2	40.2	90	37.5	3	9	90	0.00	30.318 
11:40	40.5	40.5	40.5	90	37.8	2	8	90	0.00	30.318 
11:45	40.6	40.6	40.6	90	37.9	2	5	68	0.00	30.307 
11:50	40.6	40.6	40.6	89	37.6	3	7	112	0.00	30.307 
11:55	40.8	40.8	40.8	90	38.1	2	4	90	0.00	30.307 
12:00	40.8	38.2	40.8	88	37.5	4	9	90	0.00	30.305 
12:05	40.8	40.8	40.8	88	37.5	3	10	90	0.00	30.305 
12:10	40.8	38.2	40.8	87	37.2	4	13	112	0.00	30.305 
12:15	40.9	38.4	40.9	87	37.3	4	10	112	0.00	30.291 
12:20	40.8	37.4	40.8	86	36.9	5	11	112	0.00	30.291 
12:25	41.1	38.6	41.1	85	36.9	4	10	90	0.00	30.291 
12:30	41.1	37.8	41.1	85	36.9	5	12	90	0.00	30.286 
12:35	41.2	38.7	41.2	85	37.0	4	11	90	0.00	30.286 
12:40	41.2	41.2	41.2	85	37.0	3	10	90	0.00	30.286 
12:45	41.3	41.3	41.3	85	37.1	2	9	90	0.00	30.282 
12:50	41.3	41.3	41.3	85	37.1	3	9	90	0.00	30.282 
12:55	41.3	41.3	41.3	85	37.1	2	6	112	0.00	30.282 
13:00	41.5	41.5	41.5	85	37.3	2	5	90	0.00	30.273 
13:05	41.6	41.6	41.6	84	37.1	2	7	90	0.00	30.273 
13:10	41.6	41.6	41.6	84	37.1	2	6	90	0.00	30.273 
13:15	41.8	41.8	41.8	84	37.3	3	7	112	0.00	30.267 
13:20	41.8	39.4	41.8	84	37.3	4	9	90	0.00	30.267 
13:25	42.2	42.2	42.2	84	37.7	3	9	90	0.00	30.267 
13:30	42.2	42.2	42.2	83	37.4	2	6	90	0.00	30.265 
13:35	42.3	42.3	42.3	83	37.5	3	9	90	0.00	30.265 
13:40	42.2	42.2	42.2	83	37.4	2	5	90	0.00	30.265 
13:45	42.2	42.2	42.2	83	37.4	2	6	68	0.00	30.262 
13:50	42.3	42.3	42.3	83	37.5	3	6	90	0.00	30.262 
13:55	42.3	42.3	42.3	83	37.5	3	10	112	0.00	30.262 
14:00	42.3	42.3	42.3	83	37.5	2	7	90	0.00	30.257 
14:05	42.3	42.3	42.3	83	37.5	2	7	90	0.00	30.257 
14:10	42.2	42.2	42.2	83	37.4	3	7	90	0.00	30.257 
14:15	42.2	42.2	42.2	84	37.7	3	6	90	0.00	30.253 
14:20	42.2	42.2	42.2	83	37.4	2	7	90	0.00	30.253 
14:25	42.2	42.2	42.2	84	37.7	2	4	112	0.00	30.253 
14:30	42.2	42.2	42.2	83	37.4	2	6	90	0.00	30.257 
14:35	42.2	42.2	42.2	83	37.4	3	7	90	0.00	30.257 
14:40	42.2	39.9	42.2	84	37.7	4	7	90	0.00	30.257 
14:45	42.3	42.3	42.3	84	37.8	1	5	135	0.00	30.242 
14:50	42.3	42.3	42.3	84	37.8	2	6	90	0.00	30.242 
14:55	42.5	42.5	42.5	84	38.0	0	3	22	0.00	30.242 
15:00	42.6	42.6	42.6	84	38.1	2	7	112	0.00	30.244 
15:05	42.5	42.5	42.5	84	38.0	1	4	90	0.00	30.244 
15:10	42.3	42.3	42.3	83	37.5	2	6	112	0.00	30.244 
15:15	42.3	42.3	42.3	84	37.8	2	8	90	0.00	30.251 
15:20	42.3	42.3	42.3	84	37.8	1	5	90	0.00	30.251 
15:25	42.2	42.2	42.2	84	37.7	2	7	90	0.00	30.251 
15:30	42.2	42.2	42.2	84	37.7	2	9	90	0.00	30.252 
15:35	42.2	42.2	42.2	84	37.7	2	7	68	0.00	30.252 
15:40	42.2	42.2	42.2	84	37.7	1	4	90	0.00	30.252 
15:45	42.3	42.3	42.3	85	38.1	1	4	90	0.00	30.254 
15:50	42.3	42.3	42.3	85	38.1	1	4	112	0.00	30.254 
15:55	42.3	42.3	42.3	84	37.8	1	6	45	0.00	30.254 
16:00	42.3	42.3	42.3	85	38.1	1	7	45	0.00	30.246 
16:05	42.3	42.3	42.3	85	38.1	2	7	90	0.00	30.246 
16:10	42.2	42.2	42.2	84	37.7	3	9	90	0.00	30.246 
16:15	42.3	42.3	42.3	84	37.8	3	9	90	0.00	30.251 
16:20	42.3	42.3	42.3	84	37.8	3	9	112	0.00	30.251 
16:25	42.3	42.3	42.3	84	37.8	1	6	112	0.00	30.251 
16:30	42.3	42.3	42.3	84	37.8	3	12	90	0.00	30.247 
16:35	42.3	42.3	42.3	84	37.8	2	6	112	0.00	30.247 
16:40	42.3	42.3	42.3	84	37.8	2	6	90	0.00	30.247 
16:45	42.3	42.3	42.3	84	37.8	3	7	90	0.00	30.249 
16:50	42.3	42.3	42.3	84	37.8	2	6	90	0.00	30.249 
16:55	42.2	42.2	42.2	84	37.7	3	6	90	0.00	30.249 
17:00	42.2	39.9	42.2	84	37.7	4	8	90	0.00	30.251 
17:05	42.2	42.2	42.2	84	37.7	3	9	90	0.00	30.251 
17:10	42.1	42.1	42.1	84	37.6	3	8	90	0.00	30.251 
17:15	42.1	42.1	42.1	84	37.6	2	6	90	0.00	30.255 
17:20	42.2	42.2	42.2	84	37.7	2	5	90	0.00	30.255 
17:25	42.1	39.7	42.1	84	37.6	4	9	90	0.00	30.255 
17:30	42.1	39.7	42.1	84	37.6	4	10	90	0.00	30.253 
17:35	42.1	42.1	42.1	84	37.6	3	8	90	0.00	30.253 
17:40	42.1	42.1	42.1	84	37.6	2	6	112	0.00	30.253 
17:45	42.1	42.1	42.1	84	37.6	3	9	90	0.00	30.245 
17:50	42.1	42.1	42.1	84	37.6	3	9	90	0.00	30.245 
17:55	42.1	39.7	42.1	84	37.6	4	10	112	0.00	30.245 
18:00	42.1	42.1	42.1	84	37.6	3	7	90	0.00	30.249 
18:05	41.9	41.9	41.9	84	37.4	3	9	90	0.00	30.249 
18:10	41.9	39.5	41.9	84	37.4	4	11	90	0.00	30.249 
18:15	41.9	39.5	41.9	84	37.4	4	11	90	0.00	30.247 
18:20	41.8	39.4	41.8	84	37.3	4	10	90	0.00	30.247 
18:25	41.8	41.8	41.8	84	37.3	3	10	90	0.00	30.247 
18:30	41.8	39.4	41.8	84	37.3	4	9	90	0.00	30.252 
18:35	41.6	38.4	41.6	84	37.1	5	10	90	0.00	30.252 
18:40	41.6	39.2	41.6	84	37.1	4	10	112	0.00	30.252 
18:45	41.6	41.6	41.6	84	37.1	2	7	90	0.00	30.260 
18:50	41.6	41.6	41.6	84	37.1	3	6	90	0.00	30.260 
18:55	41.6	41.6	41.6	85	37.4	2	5	90	0.00	30.260 
19:00	41.6	41.6	41.6	85	37.4	3	10	112	0.00	30.257 
19:05	41.6	41.6	41.6	85	37.4	2	7	90	0.00	30.257 
19:10	41.6	39.2	41.6	85	37.4	4	9	90	0.00	30.257 
19:15	41.6	41.6	41.6	84	37.1	3	10	90	0.00	30.253 
19:20	41.6	38.4	41.6	84	37.1	5	11	90	0.00	30.253 
19:25	41.5	41.5	41.5	84	37.0	3	10	112	0.00	30.253 
19:30	41.5	41.5	41.5	84	37.0	3	9	112	0.00	30.256 
19:35	41.5	41.5	41.5	84	37.0	3	9	90	0.00	30.256 
19:40	41.5	39.1	41.5	84	37.0	4	9	112	0.00	30.256 
19:45	41.5	41.5	41.5	84	37.0	3	12	112	0.00	30.258 
19:50	41.5	39.1	41.5	83	36.7	4	10	90	0.00	30.258 
19:55	41.5	41.5	41.5	83	36.7	2	6	90	0.00	30.258 
20:00	41.5	41.5	41.5	84	37.0	2	6	112	0.00	30.247 
20:05	41.5	41.5	41.5	84	37.0	3	7	112	0.00	30.247 
20:10	41.5	41.5	41.5	84	37.0	2	6	112	0.00	30.247 
20:15	41.5	41.5	41.5	84	37.0	2	6	90	0.00	30.237 
20:20	41.3	38.8	41.3	84	36.8	4	9	112	0.00	30.237 
20:25	41.3	41.3	41.3	84	36.8	3	9	90	0.00	30.237 
20:30	41.3	41.3	41.3	84	36.8	3	7	90	0.00	30.245 
20:35	41.3	41.3	41.3	84	36.8	3	9	90	0.00	30.245 
20:40	41.2	38.7	41.2	84	36.7	4	9	90	0.00	30.245 
20:45	41.1	41.1	41.1	84	36.6	2	9	90	0.00	30.237 
20:50	40.8	40.8	40.8	84	36.3	3	9	112	0.00	30.237 
20:55	40.6	40.6	40.6	84	36.2	3	9	112	0.00	30.237 
21:00	40.5	40.5	40.5	84	36.1	3	9	90	0.00	30.243 
21:05	40.3	40.3	40.3	85	36.2	2	6	90	0.00	30.243 
21:10	40.2	40.2	40.2	85	36.1	3	6	90	0.00	30.243 
21:15	40.1	40.1	40.1	85	36.0	3	9	90	0.00	30.243 
21:20	40.1	40.1	40.1	85	36.0	2	5	68	0.00	30.243 
21:25	40.1	40.1	40.1	85	36.0	3	6	90	0.00	30.243 
21:30	40.1	40.1	40.1	85	36.0	2	6	90	0.00	30.244 
21:35	40.1	40.1	40.1	85	36.0	1	7	90	0.00	30.244 
21:40	40.1	40.1	40.1	85	36.0	1	4	90	0.00	30.244 
21:45	40.1	40.1	40.1	85	36.0	2	5	90	0.00	30.232 
21:50	40.1	40.1	40.1	85	36.0	1	5	112	0.00	30.232 
21:55	40.1	40.1	40.1	85	36.0	1	4	90	0.00	30.232 
22:00	39.9	39.9	39.9	85	35.8	2	7	112	0.00	30.218 
22:05	39.9	39.9	39.9	85	35.8	2	7	90	0.00	30.218 
22:10	39.9	39.9	39.9	84	35.5	3	10	90	0.00	30.218 
22:15	39.9	37.2	39.9	84	35.5	4	11	112	0.00	30.219 
22:20	39.9	39.9	39.9	84	35.5	3	7	90	0.00	30.219 
22:25	39.9	39.9	39.9	85	35.8	3	9	90	0.00	30.219 
22:30	39.9	39.9	39.9	85	35.8	3	7	90	0.00	30.230 
22:35	39.9	39.9	39.9	85	35.8	2	6	90	0.00	30.230 
22:40	39.9	39.9	39.9	85	35.8	2	6	90	0.00	30.230 
22:45	39.9	39.9	39.9	85	35.8	1	4	112	0.00	30.252 
22:50	39.9	39.9	39.9	85	35.8	2	9	90	0.00	30.252 
22:55	39.9	39.9	39.9	85	35.8	2	7	90	0.00	30.252 
23:00	39.9	39.9	39.9	85	35.8	2	9	90	0.00	30.244 
23:05	39.9	39.9	39.9	85	35.8	3	6	112	0.00	30.244 
23:10	39.9	39.9	39.9	85	35.8	2	7	90	0.00	30.244 
23:15	39.9	39.9	39.9	85	35.8	2	7	90	0.00	30.231 
23:20	39.8	39.8	39.8	85	35.7	3	6	90	0.00	30.231 
23:25	39.6	39.6	39.6	85	35.5	1	6	90	0.00	30.231 
23:30	39.5	39.5	39.5	85	35.4	2	7	112	0.00	30.226 
23:35	39.3	39.3	39.3	85	35.2	3	6	90	0.00	30.226 
23:40	39.1	39.1	39.1	86	35.3	1	4	112	0.00	30.226 
23:45	38.9	38.9	38.9	86	35.1	1	7	112	0.00	30.204 
23:50	38.8	38.8	38.8	86	35.0	2	6	112	0.00	30.204 
23:55	38.6	38.6	38.6	87	35.1	1	5	112	0.00	30.204 

CoCoRaHS
IN-AL-39
A2 Web Hosting
Creative Commons License
GoDaddy
search engine by freefind advanced

loaded 2018-11-20 02:26:25 • last modified 2010-11-18 10:43:29
Privacy PolicyDisclaimer
• wx.awcolley.com is powered by PmWiki v.2002016 •
• all content (unless otherwise noted) © 2018 A W Colley